Time;durP1;ratioP1;P1;durP2;ratioP2;P2;SDS_P1;SDS_P2;PMS_P1;PMS_P2;Temp;Humidity;BMP_temperature;BMP_pressure;BME280_temperature;BME280_humidity;BME280_pressure;Samples;Min_cycle;Max_cycle;Signal;HPM_P1;HPM_P2
2022/11/30 00:00:58;;;;;;;29.02;13.90;;;;;;;4.58;100.00;102500.03;7378388;19;20014;-83
2022/11/30 00:03:28;;;;;;;28.83;14.50;;;;;;;4.61;100.00;102499.34;7376965;19;20026;-82
2022/11/30 00:05:57;;;;;;;25.88;14.88;;;;;;;4.59;100.00;102512.22;7381538;19;20018;-82
2022/11/30 00:08:29;;;;;;;27.83;16.27;;;;;;;4.61;100.00;102504.53;7379772;19;20021;-81
2022/11/30 00:10:59;;;;;;;32.80;14.90;;;;;;;4.60;100.00;102508.84;7378919;19;20013;-83
2022/11/30 00:13:29;;;;;;;24.38;13.10;;;;;;;4.59;100.00;102501.84;7378289;19;20021;-83
2022/11/30 00:16:02;;;;;;;31.17;15.52;;;;;;;4.63;100.00;102515.03;7381443;19;20014;-83
2022/11/30 00:18:31;;;;;;;26.48;15.05;;;;;;;4.63;100.00;102512.44;7380341;19;20025;-82
2022/11/30 00:21:02;;;;;;;27.52;14.70;;;;;;;4.64;100.00;102512.53;7381449;19;20017;-83
2022/11/30 00:23:37;;;;;;;27.75;14.98;;;;;;;4.63;100.00;102509.81;7381380;19;20092;-83
2022/11/30 00:26:09;;;;;;;23.45;13.10;;;;;;;4.64;100.00;102516.81;7380271;19;20014;-83
2022/11/30 00:28:40;;;;;;;27.65;14.32;;;;;;;4.65;100.00;102510.81;7379581;19;20510;-83
2022/11/30 00:31:13;;;;;;;28.58;14.73;;;;;;;4.68;100.00;102516.22;7379416;19;20031;-85
2022/11/30 00:33:43;;;;;;;23.95;14.07;;;;;;;4.67;100.00;102512.72;7378014;19;20018;-86
2022/11/30 00:36:15;;;;;;;30.52;15.68;;;;;;;4.68;100.00;102511.91;7379565;19;20018;-85
2022/11/30 00:38:48;;;;;;;26.33;14.05;;;;;;;4.69;100.00;102513.72;7379826;19;20018;-83
2022/11/30 00:41:18;;;;;;;27.27;13.73;;;;;;;4.70;100.00;102510.31;7381939;19;20037;-84
2022/11/30 00:43:48;;;;;;;23.63;13.23;;;;;;;4.72;100.00;102508.72;7379623;19;20455;-86
2022/11/30 00:46:18;;;;;;;23.77;14.95;;;;;;;4.74;100.00;102506.22;7381575;19;20045;-85
2022/11/30 01:00:06;;;;;;;27.20;13.68;;;;;;;4.84;100.00;102498.19;7382841;19;20010;-85
2022/11/30 01:02:36;;;;;;;23.83;14.17;;;;;;;4.86;100.00;102505.28;7386061;19;20018;-86
2022/11/30 01:05:06;;;;;;;26.65;14.93;;;;;;;4.90;100.00;102503.78;7387131;19;20014;-85
2022/11/30 01:07:36;;;;;;;30.20;15.73;;;;;;;4.90;100.00;102504.66;7387412;19;20014;-86
2022/11/30 01:10:07;;;;;;;21.85;13.68;;;;;;;4.92;100.00;102507.38;7386088;19;20014;-86
2022/11/30 01:12:37;;;;;;;23.73;13.25;;;;;;;4.93;100.00;102504.88;7389691;19;20006;-85
2022/11/30 01:15:11;;;;;;;24.95;14.35;;;;;;;4.93;100.00;102502.25;7383749;19;20010;-85
2022/11/30 01:17:41;;;;;;;22.70;12.80;;;;;;;4.96;100.00;102508.47;7387952;19;20019;-86
2022/11/30 01:20:11;;;;;;;25.38;13.15;;;;;;;4.97;100.00;102510.25;7386759;19;20014;-86
2022/11/30 01:22:41;;;;;;;24.77;12.77;;;;;;;4.97;100.00;102510.25;7391686;19;20025;-86
2022/11/30 01:25:11;;;;;;;25.23;14.52;;;;;;;4.98;100.00;102507.75;7386487;19;20404;-86
2022/11/30 01:27:40;;;;;;;24.70;14.02;;;;;;;5.00;100.00;102502.66;7389124;19;20010;-86
2022/11/30 01:30:14;;;;;;;23.85;14.80;;;;;;;5.01;100.00;102505.34;7390474;19;20082;-86
2022/11/30 01:32:43;;;;;;;23.80;13.60;;;;;;;5.04;100.00;102512.44;7391676;19;20010;-87
2022/11/30 01:35:13;;;;;;;24.92;13.35;;;;;;;5.04;100.00;102510.75;7389980;19;20011;-87
2022/11/30 01:37:43;;;;;;;26.13;13.70;;;;;;;5.07;100.00;102504.81;7391986;19;20018;-89
2022/11/30 01:40:14;;;;;;;24.05;13.45;;;;;;;5.08;100.00;102504.91;7391624;19;20014;-86
2022/11/30 01:42:48;;;;;;;24.70;13.48;;;;;;;5.09;100.00;102501.50;7391009;19;20050;-87
2022/11/30 01:45:20;;;;;;;26.23;13.00;;;;;;;5.11;100.00;102501.63;7388154;19;20627;-87
2022/11/30 01:47:54;;;;;;;28.00;14.18;;;;;;;5.11;100.00;102502.50;7382416;19;20019;-87
2022/11/30 01:50:29;;;;;;;22.60;12.45;;;;;;;5.14;100.00;102509.59;7387755;19;20042;-87
2022/11/30 01:53:00;;;;;;;25.80;13.00;;;;;;;5.15;100.00;102503.59;7381618;19;20031;-87
2022/11/30 01:55:33;;;;;;;25.55;13.27;;;;;;;5.16;100.00;102506.28;7384122;19;20018;-86
2022/11/30 01:58:06;;;;;;;24.67;12.55;;;;;;;5.19;100.00;102505.59;7382898;19;20006;-85
2022/11/30 02:00:40;;;;;;;25.48;14.82;;;;;;;5.20;100.00;102508.25;7381319;19;20018;-85
2022/11/30 02:03:13;;;;;;;27.05;13.40;;;;;;;5.23;100.00;102508.44;7382768;19;20020;-84
2022/11/30 02:05:44;;;;;;;28.15;14.05;;;;;;;5.25;100.00;102508.53;7381618;19;20018;-83
2022/11/30 02:08:14;;;;;;;21.17;12.15;;;;;;;5.25;100.00;102511.13;7381266;19;20691;-86
2022/11/30 02:10:48;;;;;;;20.35;12.20;;;;;;;5.25;100.00;102503.31;7378004;19;20014;-85
2022/11/30 02:13:42;;;;;;;;;;;;;;;5.26;100.00;102505.13;7381105;19;20443;-82
2022/11/30 02:16:24;;;;;;;23.25;11.32;;;;;;;5.29;100.00;102507.00;7377079;19;19915;-85
2022/11/30 02:19:02;;;;;;;23.10;12.43;;;;;;;5.29;100.00;102512.22;7378273;19;20014;-84
2022/11/30 02:21:40;;;;;;;26.17;13.10;;;;;;;5.29;100.00;102505.31;7381561;19;20018;-84
2022/11/30 02:24:42;;;;;;;20.33;11.63;;;;;;;5.27;100.00;102517.31;7377229;19;20578;-83
2022/11/30 02:27:20;;;;;;;20.15;11.75;;;;;;;5.24;100.00;102502.44;7381504;19;20055;-82
2022/11/30 02:29:57;;;;;;;23.10;12.32;;;;;;;5.20;100.00;102504.78;7385991;19;20048;-84
2022/11/30 03:14:48;;;;;;;15.13;7.93;;;;;;;4.59;100.00;102522.63;7371674;19;20022;-75
2022/11/30 03:57:51;;;;;;;16.77;9.27;;;;;;;4.26;100.00;102554.19;7370450;19;20060;-75
2022/11/30 04:44:55;;;;;;;19.48;10.80;;;;;;;3.29;100.00;102566.63;7368442;19;20053;-74
2022/11/30 04:54:46;;;;;;;22.92;10.75;;;;;;;3.13;100.00;102564.66;7366512;19;20014;-79
2022/11/30 04:57:16;;;;;;;18.77;10.63;;;;;;;3.12;100.00;102564.59;7364140;19;20041;-79
2022/11/30 04:59:46;;;;;;;25.35;12.10;;;;;;;3.08;100.00;102560.88;7366660;19;20015;-79
2022/11/30 05:02:16;;;;;;;26.30;12.88;;;;;;;3.06;100.00;102561.56;7363793;19;20017;-79
2022/11/30 05:04:46;;;;;;;21.42;10.98;;;;;;;3.04;100.00;102561.44;7368655;19;20053;-79
2022/11/30 05:07:19;;;;;;;20.40;11.90;;;;;;;3.04;100.00;102568.31;7364139;19;20015;-79
2022/11/30 05:09:49;;;;;;;19.83;10.60;;;;;;;3.03;100.00;102570.00;7372170;19;20051;-79
2022/11/30 05:12:18;;;;;;;19.67;10.18;;;;;;;3.04;100.00;102573.50;7371061;19;20015;-79
2022/11/30 05:14:48;;;;;;;22.45;11.52;;;;;;;3.03;100.00;102579.47;7369206;19;20014;-79
2022/11/30 05:17:19;;;;;;;17.92;10.18;;;;;;;3.09;100.00;102582.50;7369589;19;20014;-79
2022/11/30 05:19:48;;;;;;;19.45;10.60;;;;;;;3.08;100.00;102575.53;7369897;19;20014;-79
2022/11/30 05:22:21;;;;;;;22.75;11.60;;;;;;;3.07;100.00;102584.09;7364479;19;20745;-79
2022/11/30 05:24:50;;;;;;;18.90;10.60;;;;;;;3.07;100.00;102589.28;7372465;19;20010;-79
2022/11/30 05:27:20;;;;;;;18.98;10.80;;;;;;;3.11;100.00;102586.13;7366447;19;20806;-79
2022/11/30 05:29:51;;;;;;;22.00;11.35;;;;;;;3.14;100.00;102584.59;7367390;19;20015;-79
2022/11/30 05:32:21;;;;;;;21.60;11.40;;;;;;;3.14;100.00;102578.53;7364592;19;20014;-79
2022/11/30 05:34:51;;;;;;;21.60;11.13;;;;;;;3.15;100.00;102593.28;7366240;19;20011;-79
2022/11/30 05:37:23;;;;;;;23.02;12.18;;;;;;;3.20;100.00;102586.72;7370763;19;20092;-79
2022/11/30 05:39:53;;;;;;;24.52;11.77;;;;;;;3.23;100.00;102585.25;7364618;19;20018;-79
2022/11/30 05:42:23;;;;;;;25.67;12.40;;;;;;;3.26;100.00;102584.56;7366192;19;20146;-79
2022/11/30 05:44:52;;;;;;;19.63;10.88;;;;;;;3.27;100.00;102581.19;7367027;19;20028;-79
2022/11/30 05:47:22;;;;;;;22.35;11.82;;;;;;;3.30;100.00;102578.81;7365337;19;20594;-79
2022/11/30 05:49:51;;;;;;;24.25;12.45;;;;;;;3.36;100.00;102580.94;7364145;19;20006;-78
2022/11/30 05:52:24;;;;;;;25.48;12.80;;;;;;;3.39;100.00;102582.03;7362617;19;20021;-79
2022/11/30 05:54:53;;;;;;;28.17;13.38;;;;;;;3.41;100.00;102583.06;7362244;19;20018;-78
2022/11/30 05:57:23;;;;;;;23.48;13.18;;;;;;;3.44;100.00;102593.63;7365369;19;20538;-79
2022/11/30 05:59:53;;;;;;;24.38;14.00;;;;;;;3.42;100.00;102590.03;7363936;19;20566;-79
2022/11/30 06:02:22;;;;;;;29.20;13.98;;;;;;;3.43;100.00;102591.84;7363873;19;20082;-79
2022/11/30 06:04:56;;;;;;;26.17;13.07;;;;;;;3.45;100.00;102598.03;7366508;19;20014;-79
2022/11/30 06:07:29;;;;;;;20.25;11.45;;;;;;;3.45;100.00;102594.53;7368941;19;20014;-78
2022/11/30 06:09:59;;;;;;;25.13;12.30;;;;;;;3.46;100.00;102597.25;7366360;19;20022;-78
2022/11/30 06:12:28;;;;;;;26.80;14.00;;;;;;;3.49;100.00;102597.47;7369503;19;20054;-79
2022/11/30 06:14:58;;;;;;;31.27;13.43;;;;;;;3.49;100.00;102602.66;7371336;19;20010;-79
2022/11/30 06:17:28;;;;;;;25.05;12.13;;;;;;;3.52;100.00;102604.56;7368905;19;20018;-79
2022/11/30 06:19:57;;;;;;;24.08;11.88;;;;;;;3.54;100.00;102603.88;7368520;19;21000;-79
2022/11/30 06:22:29;;;;;;;23.80;11.70;;;;;;;3.60;100.00;102606.88;7370658;19;20017;-78
2022/11/30 06:24:59;;;;;;;23.42;12.82;;;;;;;3.69;100.00;102611.81;7368892;19;20594;-79
2022/11/30 06:27:32;;;;;;;26.02;12.45;;;;;;;3.73;100.00;102611.22;7368359;19;20014;-78
2022/11/30 06:30:02;;;;;;;25.97;11.97;;;;;;;3.74;100.00;102609.53;7370789;19;20815;-79
2022/11/30 06:32:31;;;;;;;26.83;12.55;;;;;;;3.77;100.00;102610.66;7368862;19;20003;-79
2022/11/30 06:35:01;;;;;;;21.75;13.23;;;;;;;3.79;100.00;102608.16;7367393;19;20097;-78
2022/11/30 06:37:36;;;;;;;26.42;11.80;;;;;;;3.82;100.00;102610.97;7371924;19;20031;-79
2022/11/30 06:40:06;;;;;;;23.38;11.77;;;;;;;3.87;100.00;102614.78;7368892;19;20025;-78
2022/11/30 06:42:38;;;;;;;23.08;12.80;;;;;;;3.93;100.00;102610.91;7370219;19;20014;-79
2022/11/30 06:45:09;;;;;;;29.25;13.07;;;;;;;4.00;100.00;102611.31;7368124;19;20029;-78
2022/11/30 06:47:38;;;;;;;27.17;13.55;;;;;;;4.00;100.00;102604.44;7367895;19;20019;-79
2022/11/30 06:50:09;;;;;;;29.90;14.48;;;;;;;4.04;100.00;102605.53;7370439;19;20015;-79
2022/11/30 06:52:42;;;;;;;30.20;15.30;;;;;;;4.05;100.00;102608.25;7366392;19;20010;-79
2022/11/30 06:55:11;;;;;;;28.58;14.40;;;;;;;4.07;100.00;102608.34;7368342;19;20015;-79
2022/11/30 06:57:41;;;;;;;24.88;13.63;;;;;;;4.06;100.00;102612.63;7373888;19;20021;-79
2022/11/30 07:00:13;;;;;;;28.30;13.93;;;;;;;4.08;100.00;102618.84;7370465;19;20025;-79
2022/11/30 07:02:42;;;;;;;25.98;13.02;;;;;;;4.12;100.00;102613.03;7368653;19;20014;-78
2022/11/30 07:05:12;;;;;;;26.23;12.93;;;;;;;4.19;100.00;102615.22;7371022;19;20015;-79
2022/11/30 07:07:44;;;;;;;28.27;14.57;;;;;;;4.23;100.00;102622.44;7370336;19;20019;-79
2022/11/30 07:10:14;;;;;;;27.63;15.05;;;;;;;4.29;100.00;102627.13;7370329;19;19999;-78
2022/11/30 07:12:48;;;;;;;22.83;12.75;;;;;;;4.30;100.00;102630.63;7370739;19;20011;-79
2022/11/30 07:15:18;;;;;;;26.30;13.07;;;;;;;4.30;100.00;102630.63;7377175;19;20022;-79
2022/11/30 07:17:48;;;;;;;24.95;13.27;;;;;;;4.30;100.00;102634.13;7374383;19;20029;-79
2022/11/30 07:20:18;;;;;;;31.17;14.65;;;;;;;4.32;100.00;102636.81;7378110;19;20021;-79
2022/11/30 07:22:50;;;;;;;25.60;13.73;;;;;;;4.35;100.00;102639.63;7376498;19;20014;-80
2022/11/30 07:28:02;;;;;;;29.13;15.45;;;;;;;4.45;100.00;102639.44;7373491;19;20019;-83
2022/11/30 07:30:33;;;;;;;28.60;15.50;;;;;;;4.50;100.00;102645.84;7374694;19;20116;-81
2022/11/30 07:33:02;;;;;;;27.60;15.50;;;;;;;4.50;100.00;102651.03;7373929;19;20510;-81
2022/11/30 07:35:32;;;;;;;30.27;14.85;;;;;;;4.52;100.00;102654.66;7374630;19;20021;-80
2022/11/30 07:38:05;;;;;;;29.08;13.70;;;;;;;4.53;100.00;102656.44;7377196;19;20021;-79
2022/11/30 07:40:38;;;;;;;28.50;14.75;;;;;;;4.60;100.00;102658.66;7375476;19;20022;-81
2022/11/30 07:43:08;;;;;;;25.42;14.85;;;;;;;4.59;100.00;102656.84;7381964;19;20498;-82
2022/11/30 07:45:37;;;;;;;33.13;15.52;;;;;;;4.60;100.00;102658.66;7379763;19;20013;-82
2022/11/30 07:48:08;;;;;;;27.90;13.27;;;;;;;4.62;100.00;102662.25;7379530;19;20010;-82
2022/11/30 07:50:38;;;;;;;30.80;15.73;;;;;;;4.65;100.00;102656.34;7380705;19;20017;-82
2022/11/30 07:53:10;;;;;;;30.48;15.85;;;;;;;4.68;100.00;102657.47;7373868;19;20006;-82
2022/11/30 07:55:40;;;;;;;29.27;14.70;;;;;;;4.69;100.00;102664.47;7375003;19;20015;-81
2022/11/30 07:58:10;;;;;;;29.75;14.52;;;;;;;4.69;100.00;102669.66;7374767;19;20034;-83
2022/11/30 08:00:45;;;;;;;31.13;15.10;;;;;;;4.72;100.00;102664.66;7376143;19;20696;-82
2022/11/30 08:03:15;;;;;;;29.50;15.75;;;;;;;4.75;100.00;102670.06;7376044;19;20102;-82
2022/11/30 08:05:45;;;;;;;26.85;14.38;;;;;;;4.77;100.00;102671.06;7375255;19;20018;-83
2022/11/30 08:08:17;;;;;;;28.67;15.13;;;;;;;4.83;100.00;102678.38;7373963;19;20021;-83
2022/11/30 08:10:46;;;;;;;30.58;14.75;;;;;;;4.83;100.00;102679.25;7374929;19;20006;-83
2022/11/30 08:13:16;;;;;;;27.05;12.57;;;;;;;4.84;100.00;102680.16;7374389;19;20086;-83
2022/11/30 08:15:46;;;;;;;28.92;15.35;;;;;;;4.87;100.00;102691.66;7374523;19;20060;-83
2022/11/30 08:43:20;;;;;;;33.15;15.23;;;;;;;5.21;100.00;102702.53;7368116;19;20014;-74
2022/11/30 08:57:35;;;;;;;28.33;14.88;;;;;;;5.43;100.00;102710.00;7366417;19;20010;-74
2022/11/30 09:12:41;;;;;;;24.65;14.68;;;;;;;5.61;100.00;102723.28;7366338;19;20257;-74
2022/11/30 09:41:21;;;;;;;40.15;18.55;;;;;;;6.08;100.00;102735.81;7363264;19;20022;-73
2022/11/30 09:48:08;;;;;;;;;;;;;;;6.32;100.00;102745.09;7363513;19;20191;-74
2022/11/30 09:51:14;;;;;;;28.35;16.88;;;;;;;6.42;100.00;102738.72;7362946;19;19936;-74
2022/11/30 09:53:47;;;;;;;31.40;18.20;;;;;;;6.46;100.00;102738.09;7363426;19;20030;-80
2022/11/30 09:56:28;;;;;;;34.75;17.58;;;;;;;6.53;100.00;102742.88;7363082;19;20025;-79
2022/11/30 09:59:03;;;;;;;41.83;20.33;;;;;;;6.56;100.00;102740.44;7365445;19;20458;-75
2022/11/30 10:01:33;;;;;;;35.45;18.65;;;;;;;6.57;100.00;102740.53;7368071;19;20010;-78
2022/11/30 10:04:06;;;;;;;32.95;17.40;;;;;;;6.63;100.00;102734.78;7366491;19;20007;-78
2022/11/30 10:06:50;;;;;;;34.63;17.95;;;;;;;6.70;100.00;102743.88;7369005;19;20018;-79
2022/11/30 10:09:40;;;;;;;38.58;18.95;;;;;;;6.79;100.00;102740.09;7369941;19;20019;-79
2022/11/30 10:12:16;;;;;;;34.97;18.20;;;;;;;6.89;100.00;102739.84;7368022;19;20015;-78
2022/11/30 10:15:04;;;;;;;34.30;19.73;;;;;;;6.87;100.00;102743.16;7370438;19;20095;-79
2022/11/30 10:32:04;;;;;;;35.50;19.70;;;;;;;6.91;100.00;102749.47;7362800;19;20011;-81
2022/11/30 10:34:36;;;;;;;41.22;21.40;;;;;;;6.92;100.00;102740.81;7369158;19;20015;-81
2022/11/30 10:37:14;;;;;;;37.20;19.95;;;;;;;6.93;100.00;102738.31;7364364;19;20030;-80
2022/11/30 10:39:49;;;;;;;40.58;20.15;;;;;;;6.92;100.00;102739.13;7362321;19;20042;-82
2022/11/30 10:42:26;;;;;;;37.17;21.02;;;;;;;6.97;100.00;102742.00;7362876;19;20728;-80
2022/11/30 10:45:02;;;;;;;37.40;20.83;;;;;;;7.07;100.00;102746.94;7365709;19;20629;-80
2022/11/30 10:47:35;;;;;;;40.30;21.73;;;;;;;7.09;100.00;102741.00;7372559;19;20010;-79
2022/11/30 11:17:04;;;;;;;;;;;;;;;;;;;;;
2022/11/30 11:19:58;;;;;;;;;;;;;;;7.86;100.00;102722.66;7372700;19;20258;-75
2022/11/30 11:22:36;;;;;;;39.40;21.05;;;;;;;7.76;100.00;102717.75;7374538;19;20360;-78
2022/11/30 11:25:13;;;;;;;42.40;21.20;;;;;;;7.67;100.00;102720.75;7372280;19;20011;-78
2022/11/30 11:27:43;;;;;;;39.67;20.58;;;;;;;7.71;100.00;102719.19;7374649;19;20010;-77
2022/11/30 11:30:20;;;;;;;30.88;17.60;;;;;;;7.61;100.00;102719.50;7375467;19;20037;-77
2022/11/30 11:33:00;;;;;;;32.83;17.92;;;;;;;7.55;100.00;102720.97;7375997;19;20254;-76
2022/11/30 11:35:41;;;;;;;37.75;19.75;;;;;;;7.54;100.00;102719.16;7371892;19;20011;-81
2022/11/30 11:38:21;;;;;;;36.00;20.25;;;;;;;7.58;100.00;102716.72;7371402;19;20021;-81
2022/11/30 11:40:56;;;;;;;34.47;18.60;;;;;;;7.85;100.00;102718.25;7370962;19;20717;-81
2022/11/30 11:43:28;;;;;;;38.47;17.88;;;;;;;7.95;100.00;102710.06;7373811;19;20090;-81
2022/11/30 11:46:01;;;;;;;36.33;18.55;;;;;;;7.94;100.00;102708.28;7374937;19;20048;-81
2022/11/30 11:48:40;;;;;;;36.40;18.83;;;;;;;8.01;100.00;102707.78;7374987;19;20010;-80
2022/11/30 11:51:13;;;;;;;34.22;18.40;;;;;;;8.14;100.00;102712.84;7375131;19;20014;-75
2022/11/30 11:53:49;;;;;;;36.03;19.27;;;;;;;8.26;100.00;102706.47;7374521;19;20738;-76
2022/11/30 11:56:27;;;;;;;37.40;18.30;;;;;;;8.42;100.00;102699.50;7375433;19;20086;-79
2022/11/30 11:59:01;;;;;;;32.33;19.70;;;;;;;8.45;100.00;102701.38;7367958;19;20829;-78
2022/11/30 12:01:46;;;;;;;39.35;19.88;;;;;;;8.66;100.00;102696.34;7376408;19;20010;-75
2022/11/30 12:04:32;;;;;;;38.67;20.35;;;;;;;8.71;100.00;102687.91;7373837;19;20304;-75
2022/11/30 12:07:18;;;;;;;37.38;19.20;;;;;;;8.89;100.00;102687.94;7374032;19;20603;-75
2022/11/30 12:09:58;;;;;;;42.58;20.98;;;;;;;8.89;100.00;102687.94;7372939;19;20145;-75
2022/11/30 12:12:32;;;;;;;41.13;19.55;;;;;;;8.87;100.00;102688.69;7372598;19;20018;-76
2022/11/30 12:15:06;;;;;;;40.38;20.88;;;;;;;8.75;100.00;102687.25;7374376;19;20094;-76
2022/11/30 12:17:57;;;;;;;35.15;19.63;;;;;;;8.70;100.00;102696.59;7372281;19;20018;-75
2022/11/30 12:20:44;;;;;;;38.67;19.52;;;;;;;8.71;100.00;102702.72;7373941;19;20022;-75
2022/11/30 12:23:54;;;;;;;39.78;19.10;;;;;;;8.75;100.00;102699.44;7375247;19;20503;-74
2022/11/30 12:38:00;;;;;;;35.75;18.08;;;;;;;8.72;100.00;102710.63;7371944;19;20011;-74
2022/11/30 12:44:27;;;;;;;30.27;14.82;;;;;;;8.65;100.00;102705.91;7372380;19;20002;-74
2022/11/30 12:47:35;;;;;;;29.73;14.50;;;;;;;8.65;100.00;102705.91;7374511;19;20011;-75
2022/11/30 12:50:24;;;;;;;33.65;15.32;;;;;;;8.59;100.00;102708.22;7372601;19;20006;-75
2022/11/30 12:53:29;;;;;;;27.67;13.38;;;;;;;8.51;100.00;102715.66;7371811;19;20714;-75
2022/11/30 12:59:32;;;;;;;29.75;13.45;;;;;;;8.41;100.00;102722.97;7369973;19;20015;-76
2022/11/30 13:02:33;;;;;;;;;;;;;;;8.33;100.00;102721.66;7364494;19;20025;-75
2022/11/30 13:05:26;;;;;;;30.45;13.30;;;;;;;8.34;100.00;102726.06;7372124;19;19910;-75
2022/11/30 13:08:26;;;;;;;31.10;14.63;;;;;;;8.31;100.00;102731.13;7365008;19;20026;-75
2022/11/30 13:17:55;;;;;;;27.13;13.95;;;;;;;8.31;100.00;102726.81;7370093;19;20010;-74
2022/11/30 13:20:39;;;;;;;34.50;15.20;;;;;;;8.29;100.00;102727.56;7366200;19;20012;-75
2022/11/30 13:23:33;;;;;;;;;;;;;;;;;;;;;
2022/11/30 13:26:26;;;;;;;34.72;16.50;;;;;;;8.34;100.00;102723.47;7366897;19;20014;-76
2022/11/30 13:29:22;;;;;;;33.17;16.05;;;;;;;8.33;100.00;102724.28;7370733;19;20015;-75
2022/11/30 13:32:18;;;;;;;31.88;15.23;;;;;;;8.42;100.00;102720.44;7368682;19;20006;-76
2022/11/30 13:35:45;;;;;;;33.22;15.55;;;;;;;8.47;100.00;102726.78;7370869;19;20014;-76
2022/11/30 13:38:24;;;;;;;34.70;15.65;;;;;;;8.50;100.00;102721.72;7367657;19;20547;-76
2022/11/30 13:41:08;;;;;;;32.70;14.73;;;;;;;8.39;100.00;102729.81;7373905;19;20014;-75
2022/11/30 13:43:45;;;;;;;27.83;13.13;;;;;;;8.35;100.00;102720.94;7364245;19;20070;-76
2022/11/30 13:46:20;;;;;;;29.75;14.07;;;;;;;8.30;100.00;102727.63;7372898;19;20267;-75
2022/11/30 13:48:51;;;;;;;31.42;15.18;;;;;;;8.25;100.00;102725.59;7371376;19;20090;-76
2022/11/30 13:51:39;;;;;;;30.00;13.68;;;;;;;8.27;100.00;102734.41;7370172;19;20014;-75
2022/11/30 13:54:45;;;;;;;36.70;14.90;;;;;;;8.22;100.00;102735.88;7369385;19;20014;-77
2022/11/30 13:57:40;;;;;;;38.33;16.25;;;;;;;8.21;100.00;102735.00;7370106;19;20314;-75
2022/11/30 14:00:40;;;;;;;33.58;16.25;;;;;;;8.22;100.00;102743.72;7370360;19;20011;-76
2022/11/30 14:03:27;;;;;;;35.20;15.68;;;;;;;8.23;100.00;102750.75;7371936;19;20022;-77
2022/11/30 14:05:58;;;;;;;39.05;16.80;;;;;;;8.17;100.00;102759.16;7370736;19;20021;-78
2022/11/30 14:08:38;;;;;;;33.28;16.38;;;;;;;8.15;100.00;102755.56;7370787;19;20403;-77
2022/11/30 14:11:38;;;;;;;35.05;16.77;;;;;;;8.14;100.00;102748.53;7369983;19;20058;-75
2022/11/30 14:14:38;;;;;;;31.45;15.48;;;;;;;8.11;100.00;102749.28;7370226;19;20018;-75
2022/11/30 14:17:20;;;;;;;33.40;15.95;;;;;;;8.07;100.00;102755.16;7373136;19;20017;-77
2022/11/30 14:19:59;;;;;;;37.70;15.10;;;;;;;8.02;100.00;102754.00;7370874;19;20015;-75
2022/11/30 14:22:32;;;;;;;35.22;15.27;;;;;;;7.96;100.00;102753.69;7383967;19;20444;-75
2022/11/30 14:25:04;;;;;;;27.20;13.57;;;;;;;7.98;100.00;102745.94;7389010;19;20097;-76
2022/11/30 14:27:39;;;;;;;32.40;15.65;;;;;;;7.95;100.00;102759.72;7387458;19;20050;-76
2022/11/30 14:30:24;;;;;;;32.63;15.27;;;;;;;7.96;100.00;102753.69;7386549;19;20006;-75
2022/11/30 14:36:43;;;;;;;34.50;14.93;;;;;;;7.94;100.00;102762.25;7385109;19;20046;-75
2022/11/30 14:40:09;;;;;;;32.60;15.88;;;;;;;7.91;100.00;102762.97;7382637;19;20093;-76
2022/11/30 14:43:28;;;;;;;35.17;14.95;;;;;;;7.89;100.00;102754.16;7381420;19;20471;-76
2022/11/30 14:46:20;;;;;;;40.03;17.00;;;;;;;7.86;100.00;102760.13;7385170;19;20038;-76
2022/11/30 14:49:37;;;;;;;39.17;17.45;;;;;;;7.84;100.00;102761.75;7381963;19;20006;-75
2022/11/30 14:53:27;;;;;;;38.33;16.65;;;;;;;7.83;100.00;102757.34;7382201;19;20104;-76
2022/11/30 14:56:26;;;;;;;34.47;15.93;;;;;;;7.82;100.00;102766.00;7385925;19;20396;-76
2022/11/30 14:59:50;;;;;;;33.17;16.65;;;;;;;7.80;100.00;102764.09;7378056;19;20138;-77
2022/11/30 15:02:33;;;;;;;43.95;18.20;;;;;;;7.78;100.00;102764.03;7384412;19;20090;-77
2022/11/30 15:05:04;;;;;;;33.40;17.98;;;;;;;7.77;100.00;102766.56;7383061;19;20238;-77
2022/11/30 15:07:59;;;;;;;42.83;19.65;;;;;;;7.75;100.00;102768.19;7386105;19;20018;-77
2022/11/30 15:11:16;;;;;;;39.60;17.92;;;;;;;7.73;100.00;102759.34;7382592;19;20014;-77
2022/11/30 15:14:27;;;;;;;42.85;17.25;;;;;;;7.72;100.00;102758.47;7371942;19;20082;-76
2022/11/30 15:17:17;;;;;;;46.13;19.45;;;;;;;7.73;100.00;102754.13;7385466;19;20030;-77
2022/11/30 15:19:50;;;;;;;39.83;18.95;;;;;;;7.70;100.00;102760.09;7379897;19;20010;-77
2022/11/30 15:22:23;;;;;;;38.67;17.85;;;;;;;7.71;100.00;102771.44;7383641;19;20090;-77
2022/11/30 15:24:55;;;;;;;;;;;;;;;7.67;100.00;102766.84;7384679;19;20024;-77
2022/11/30 15:27:26;;;;;;;40.97;17.75;;;;;;;7.67;100.00;102772.97;7384336;19;20002;-77
2022/11/30 15:30:00;;;;;;;38.53;18.38;;;;;;;7.63;100.00;102770.09;7385014;19;20014;-77
2022/11/30 15:32:30;;;;;;;38.22;18.08;;;;;;;7.59;100.00;102770.75;7381887;19;20015;-76
2022/11/30 15:35:02;;;;;;;39.88;18.67;;;;;;;7.55;100.00;102765.34;7375315;19;20025;-76
2022/11/30 15:37:34;;;;;;;43.13;17.85;;;;;;;7.52;100.00;102765.19;7378980;19;20014;-76
2022/11/30 15:40:09;;;;;;;43.88;20.70;;;;;;;7.53;100.00;102769.59;7378078;19;20002;-76
2022/11/30 15:42:42;;;;;;;39.08;17.08;;;;;;;7.49;100.00;102770.22;7375355;19;20015;-77
2022/11/30 15:45:17;;;;;;;44.33;17.55;;;;;;;7.44;100.00;102776.91;7379603;19;20018;-76
2022/11/30 15:47:47;;;;;;;43.17;18.63;;;;;;;7.42;100.00;102783.75;7375493;19;20093;-76
2022/11/30 15:50:37;;;;;;;41.22;18.52;;;;;;;7.41;100.00;102781.94;7371194;19;20029;-77
2022/11/30 15:53:27;;;;;;;47.75;20.65;;;;;;;7.37;100.00;102789.50;7375103;19;20028;-77
2022/11/30 15:56:02;;;;;;;46.10;20.77;;;;;;;7.35;100.00;102781.59;7379016;19;20010;-76
2022/11/30 15:58:36;;;;;;;40.90;18.92;;;;;;;7.34;100.00;102789.34;7377028;19;20014;-76
2022/11/30 16:01:09;;;;;;;41.97;19.98;;;;;;;7.28;100.00;102783.81;7373173;19;20656;-76
2022/11/30 16:04:02;;;;;;;43.47;19.83;;;;;;;7.34;100.00;102794.56;7378722;19;20122;-76
2022/11/30 16:06:35;;;;;;;41.75;19.02;;;;;;;7.25;100.00;102800.19;7374942;19;20015;-76
2022/11/30 16:09:20;;;;;;;47.35;21.13;;;;;;;7.21;100.00;102803.44;7370785;19;20015;-76
2022/11/30 16:11:57;;;;;;;48.42;20.33;;;;;;;7.17;100.00;102798.84;7374799;19;20349;-76
2022/11/30 16:14:27;;;;;;;42.88;19.50;;;;;;;7.11;100.00;102801.09;7376156;19;20406;-76
2022/11/30 16:16:57;;;;;;;45.47;20.58;;;;;;;7.06;100.00;102797.31;7374268;19;20133;-75
2022/11/30 16:19:33;;;;;;;45.50;20.20;;;;;;;7.02;100.00;102798.84;7376346;19;20065;-74
2022/11/30 16:22:03;;;;;;;47.35;20.75;;;;;;;6.97;100.00;102808.09;7372906;19;20010;-75
2022/11/30 16:24:33;;;;;;;44.25;20.10;;;;;;;6.95;100.00;102803.59;7371218;19;20107;-78
2022/11/30 16:27:16;;;;;;;50.13;20.13;;;;;;;6.94;100.00;102807.03;7371691;19;20010;-75
2022/11/30 16:29:46;;;;;;;46.97;19.05;;;;;;;6.89;100.00;102825.91;7373060;19;20025;-75
2022/11/30 16:32:21;;;;;;;43.30;18.90;;;;;;;6.88;100.00;102820.59;7369467;19;20010;-76
2022/11/30 16:34:51;;;;;;;47.95;20.10;;;;;;;6.89;100.00;102825.00;7373028;19;20010;-75
2022/11/30 16:37:21;;;;;;;40.05;18.48;;;;;;;6.80;100.00;102830.56;7370471;19;20022;-76
2022/11/30 16:39:51;;;;;;;45.85;19.60;;;;;;;6.71;100.00;102840.44;7369879;19;20258;-77
2022/11/30 16:42:23;;;;;;;41.47;19.17;;;;;;;6.75;100.00;102836.31;7368837;19;20042;-75
2022/11/30 16:44:53;;;;;;;43.00;19.80;;;;;;;6.62;100.00;102849.41;7371926;19;20014;-75
2022/11/30 16:47:23;;;;;;;50.40;22.00;;;;;;;6.51;100.00;102847.06;7370654;19;20097;-75
2022/11/30 16:49:52;;;;;;;42.63;21.00;;;;;;;6.46;100.00;102844.97;7374442;19;20029;-75
2022/11/30 16:52:22;;;;;;;43.53;19.45;;;;;;;6.57;100.00;102841.31;7371835;19;20024;-75
2022/11/30 16:54:52;;;;;;;46.83;20.98;;;;;;;6.36;100.00;102837.38;7375517;19;20010;-77
2022/11/30 16:57:24;;;;;;;41.05;17.63;;;;;;;6.27;100.00;102839.41;7376935;19;20014;-77